createdAt,value
2022-08-19T00:00:47.039Z,24.77
2022-08-19T00:01:52.696Z,24.78
2022-08-19T00:02:50.058Z,24.77
2022-08-19T00:03:47.001Z,24.77
2022-08-19T00:04:47.072Z,24.78
2022-08-19T00:05:46.973Z,24.78
2022-08-19T00:06:46.991Z,24.78
2022-08-19T00:07:46.952Z,24.77
2022-08-19T00:08:46.944Z,24.78
2022-08-19T00:09:46.933Z,24.80
2022-08-19T00:10:46.922Z,24.80
2022-08-19T00:11:46.934Z,24.78
2022-08-19T00:12:47.226Z,24.78
2022-08-19T00:13:46.885Z,24.77
2022-08-19T00:14:46.906Z,24.78
2022-08-19T00:15:46.871Z,24.78
2022-08-19T00:16:46.885Z,24.78
2022-08-19T00:17:46.847Z,24.78
2022-08-19T00:18:46.836Z,24.77
2022-08-19T00:19:46.819Z,24.77
2022-08-19T00:20:46.818Z,24.77
2022-08-19T00:21:46.817Z,24.78
2022-08-19T00:22:46.855Z,24.78
2022-08-19T00:23:46.776Z,24.77
2022-08-19T00:24:50.676Z,24.78
2022-08-19T00:25:48.640Z,24.80
2022-08-19T00:26:46.775Z,24.78
2022-08-19T00:27:46.741Z,24.80
2022-08-19T00:28:46.721Z,24.80
2022-08-19T00:29:46.721Z,24.80
2022-08-19T00:30:47.699Z,24.80
2022-08-19T00:31:46.719Z,24.81
2022-08-19T00:32:46.724Z,24.83
2022-08-19T00:33:46.670Z,24.81
2022-08-19T00:34:46.662Z,24.81
2022-08-19T00:35:46.641Z,24.81
2022-08-19T00:36:47.651Z,24.80
2022-08-19T00:37:46.621Z,24.81
2022-08-19T00:38:46.614Z,24.80
2022-08-19T00:39:46.616Z,24.77
2022-08-19T00:40:46.586Z,24.77
2022-08-19T00:41:47.903Z,24.77
2022-08-19T00:42:46.621Z,24.76
2022-08-19T00:43:46.547Z,24.71
2022-08-19T00:44:46.545Z,24.73
2022-08-19T00:45:46.530Z,24.71
2022-08-19T00:46:55.540Z,24.69
2022-08-19T00:47:47.519Z,24.69
2022-08-19T00:48:46.507Z,24.68
2022-08-19T00:49:46.492Z,24.69
2022-08-19T00:50:52.307Z,24.68
2022-08-19T00:51:47.479Z,24.67
2022-08-19T00:52:46.630Z,24.65
2022-08-19T00:53:46.448Z,24.65
2022-08-19T00:54:49.664Z,24.64
2022-08-19T00:55:47.420Z,24.64
2022-08-19T00:56:46.431Z,24.64
2022-08-19T00:57:46.391Z,24.64
2022-08-19T00:58:46.382Z,24.64
2022-08-19T01:00:00.286Z,24.62
2022-08-19T01:00:47.363Z,24.61
2022-08-19T01:01:46.398Z,24.60
2022-08-19T01:02:46.443Z,24.60
2022-08-19T01:03:57.512Z,24.60
2022-08-19T01:04:47.325Z,24.60
2022-08-19T01:05:46.314Z,24.58
2022-08-19T01:06:46.324Z,24.58
2022-08-19T01:07:46.285Z,24.57
2022-08-19T01:08:46.285Z,24.57
2022-08-19T01:09:46.266Z,24.57
2022-08-19T01:10:46.255Z,24.57
2022-08-19T01:11:46.255Z,24.55
2022-08-19T01:12:46.271Z,24.57
2022-08-19T01:13:49.375Z,24.57
2022-08-19T01:14:46.207Z,24.55
2022-08-19T01:15:46.219Z,24.55
2022-08-19T01:16:46.186Z,24.55
2022-08-19T01:17:46.170Z,24.53
2022-08-19T01:18:46.178Z,24.53
2022-08-19T01:19:46.151Z,24.53
2022-08-19T01:20:46.142Z,24.53
2022-08-19T01:21:46.139Z,24.55
2022-08-19T01:22:46.129Z,24.53
2022-08-19T01:23:46.109Z,24.55
2022-08-19T01:24:49.515Z,24.53
2022-08-19T01:25:46.084Z,24.53
2022-08-19T01:26:46.589Z,24.53
2022-08-19T01:27:46.062Z,24.53
2022-08-19T01:28:46.052Z,24.53
2022-08-19T01:29:46.109Z,24.52
2022-08-19T01:30:50.911Z,24.52
2022-08-19T01:31:47.034Z,24.52
2022-08-19T01:32:46.013Z,24.52
2022-08-19T01:33:46.019Z,24.52
2022-08-19T01:34:45.974Z,24.50
2022-08-19T01:35:45.963Z,24.50
2022-08-19T01:36:45.985Z,24.49
2022-08-19T01:37:45.962Z,24.47
2022-08-19T01:38:45.944Z,24.46
2022-08-19T01:39:45.974Z,24.46
2022-08-19T01:40:45.917Z,24.45
2022-08-19T01:41:45.937Z,24.45
2022-08-19T01:42:45.907Z,24.43
2022-08-19T01:44:03.855Z,24.43
2022-08-19T01:44:46.882Z,24.45
2022-08-19T01:45:45.868Z,24.45
2022-08-19T01:46:45.881Z,24.45
2022-08-19T01:48:01.404Z,24.45
2022-08-19T01:48:46.832Z,24.46
2022-08-19T01:49:45.829Z,24.45
2022-08-19T01:50:45.819Z,24.45
2022-08-19T01:51:45.822Z,24.45
2022-08-19T01:52:45.795Z,24.46
2022-08-19T01:53:45.772Z,24.46
2022-08-19T01:54:45.775Z,24.46
2022-08-19T01:55:45.786Z,24.45
2022-08-19T01:56:45.763Z,24.46
2022-08-19T01:57:45.735Z,24.46
2022-08-19T01:58:45.725Z,24.46
2022-08-19T01:59:45.705Z,24.46
2022-08-19T02:00:45.724Z,24.47
2022-08-19T02:01:45.773Z,24.46
2022-08-19T02:02:45.675Z,24.46
2022-08-19T02:03:45.664Z,24.46
2022-08-19T02:04:45.666Z,24.46
2022-08-19T02:05:45.675Z,24.46
2022-08-19T02:06:45.637Z,24.46
2022-08-19T02:07:45.617Z,24.46
2022-08-19T02:08:45.607Z,24.45
2022-08-19T02:09:45.596Z,24.46
2022-08-19T02:12:03.182Z,24.45
2022-08-19T02:13:03.142Z,24.43
2022-08-19T02:14:03.123Z,24.42
2022-08-19T02:15:03.122Z,24.43
2022-08-19T02:16:04.450Z,24.42
2022-08-19T02:17:03.104Z,24.42
2022-08-19T02:18:03.089Z,24.42
2022-08-19T02:19:03.082Z,24.40
2022-08-19T02:20:03.064Z,24.39
2022-08-19T02:21:03.076Z,24.40
2022-08-19T02:22:03.044Z,24.40
2022-08-19T02:23:03.038Z,24.40
2022-08-19T02:24:03.027Z,24.42
2022-08-19T02:25:03.009Z,24.42
2022-08-19T02:26:03.017Z,24.40
2022-08-19T02:27:02.998Z,24.40
2022-08-19T02:28:02.978Z,24.40
2022-08-19T02:29:02.976Z,24.40
2022-08-19T02:30:02.958Z,24.39
2022-08-19T02:31:02.969Z,24.40
2022-08-19T02:32:02.941Z,24.39
2022-08-19T02:33:02.928Z,24.37
2022-08-19T02:34:02.928Z,24.39
2022-08-19T02:35:02.921Z,24.37
2022-08-19T02:36:03.896Z,24.39
2022-08-19T02:37:03.919Z,24.37
2022-08-19T02:38:02.860Z,24.39
2022-08-19T02:39:02.863Z,24.39
2022-08-19T02:40:02.900Z,24.40
2022-08-19T02:41:02.851Z,24.40
2022-08-19T02:42:02.812Z,24.39
2022-08-19T02:43:02.833Z,24.37
2022-08-19T02:44:27.599Z,24.37
2022-08-19T02:45:03.796Z,24.39
2022-08-19T02:46:02.801Z,24.37
2022-08-19T02:47:02.773Z,24.35
2022-08-19T02:48:03.418Z,24.35
2022-08-19T02:49:03.758Z,24.35
2022-08-19T02:50:02.747Z,24.35
2022-08-19T02:51:02.763Z,24.37
2022-08-19T02:52:02.706Z,24.35
2022-08-19T02:53:02.695Z,24.37
2022-08-19T02:54:02.686Z,24.37
2022-08-19T02:55:02.676Z,24.34
2022-08-19T02:56:02.692Z,24.37
2022-08-19T02:57:02.647Z,24.37
2022-08-19T02:58:02.639Z,24.39
2022-08-19T02:59:03.666Z,24.37
2022-08-19T03:00:02.633Z,24.37
2022-08-19T03:01:02.680Z,24.37
2022-08-19T03:02:02.589Z,24.39
2022-08-19T03:03:02.587Z,24.37
2022-08-19T03:04:02.570Z,24.37
2022-08-19T03:05:02.561Z,24.37
2022-08-19T03:06:02.561Z,24.34
2022-08-19T03:07:11.110Z,24.35
2022-08-19T03:08:03.531Z,24.35
2022-08-19T03:09:02.523Z,24.34
2022-08-19T03:10:02.515Z,24.35
2022-08-19T03:11:02.524Z,24.34
2022-08-19T03:12:02.485Z,24.35
2022-08-19T03:13:02.483Z,24.32
2022-08-19T03:14:02.465Z,24.32
2022-08-19T03:15:02.466Z,24.34
2022-08-19T03:16:02.466Z,24.34
2022-08-19T03:17:02.446Z,24.34
2022-08-19T03:18:02.417Z,24.34
2022-08-19T03:19:02.497Z,24.32
2022-08-19T03:20:02.416Z,24.34
2022-08-19T03:21:02.388Z,24.32
2022-08-19T03:22:02.394Z,24.32
2022-08-19T03:23:02.368Z,24.31
2022-08-19T03:24:02.365Z,24.34
2022-08-19T03:25:02.367Z,24.34
2022-08-19T03:26:15.823Z,24.32
2022-08-19T03:27:03.320Z,24.32
2022-08-19T03:28:02.310Z,24.32
2022-08-19T03:29:02.308Z,24.32
2022-08-19T03:30:02.301Z,24.32
2022-08-19T03:31:02.280Z,24.31
2022-08-19T03:32:02.275Z,24.31
2022-08-19T03:33:02.262Z,24.31
2022-08-19T03:34:02.252Z,24.31
2022-08-19T03:35:02.263Z,24.31
2022-08-19T03:36:02.243Z,24.31
2022-08-19T03:37:02.225Z,24.30
2022-08-19T03:38:02.204Z,24.31
2022-08-19T03:39:02.196Z,24.31
2022-08-19T03:40:02.265Z,24.30
2022-08-19T03:41:02.184Z,24.30
2022-08-19T03:42:32.155Z,24.30
2022-08-19T03:43:03.333Z,24.30
2022-08-19T03:44:02.126Z,24.30
2022-08-19T03:45:02.157Z,24.30
2022-08-19T03:46:02.107Z,24.30
2022-08-19T03:47:02.108Z,24.30
2022-08-19T03:48:02.090Z,24.30
2022-08-19T03:49:02.093Z,24.28
2022-08-19T03:50:02.088Z,24.30
2022-08-19T03:51:02.059Z,24.30
2022-08-19T03:52:02.048Z,24.30
2022-08-19T03:53:02.040Z,24.30
2022-08-19T03:54:02.020Z,24.28
2022-08-19T03:55:02.031Z,24.30
2022-08-19T03:56:01.992Z,24.27
2022-08-19T03:57:01.990Z,24.28
2022-08-19T03:58:01.979Z,24.27
2022-08-19T03:59:01.971Z,24.27
2022-08-19T04:00:03.999Z,24.27
2022-08-19T04:01:02.973Z,24.28
2022-08-19T04:02:01.933Z,24.28
2022-08-19T04:03:02.076Z,24.28
2022-08-19T04:04:01.905Z,24.28
2022-08-19T04:05:01.923Z,24.28
2022-08-19T04:06:01.883Z,24.30
2022-08-19T04:07:01.875Z,24.28
2022-08-19T04:08:01.865Z,24.28
2022-08-19T04:09:01.856Z,24.28
2022-08-19T04:10:01.862Z,24.27
2022-08-19T04:11:01.826Z,24.28
2022-08-19T04:12:01.856Z,24.28
2022-08-19T04:13:01.808Z,24.28
2022-08-19T04:14:01.801Z,24.27
2022-08-19T04:15:01.808Z,24.28
2022-08-19T04:16:01.768Z,24.28
2022-08-19T04:17:01.780Z,24.28
2022-08-19T04:18:01.750Z,24.28
2022-08-19T04:19:01.741Z,24.28
2022-08-19T04:20:01.750Z,24.28
2022-08-19T04:21:02.733Z,24.31
2022-08-19T04:22:01.726Z,24.27
2022-08-19T04:23:01.701Z,24.28
2022-08-19T04:24:01.685Z,24.28
2022-08-19T04:25:01.703Z,24.27
2022-08-19T04:26:01.673Z,24.27
2022-08-19T04:27:01.669Z,24.25
2022-08-19T04:28:01.644Z,24.24
2022-08-19T04:29:01.632Z,24.25
2022-08-19T04:30:01.634Z,24.22
2022-08-19T04:31:01.612Z,24.22
2022-08-19T04:32:09.008Z,24.22
2022-08-19T04:33:02.592Z,24.22
2022-08-19T04:34:01.574Z,24.22
2022-08-19T04:35:16.747Z,24.21
2022-08-19T04:36:02.556Z,24.22
2022-08-19T04:37:01.546Z,24.22
2022-08-19T04:38:01.536Z,24.22
2022-08-19T04:39:01.517Z,24.21
2022-08-19T04:40:02.615Z,24.22
2022-08-19T04:41:01.496Z,24.22
2022-08-19T04:42:01.488Z,24.22
2022-08-19T04:43:01.469Z,24.22
2022-08-19T04:44:04.390Z,24.24
2022-08-19T04:45:01.475Z,24.24
2022-08-19T04:46:01.459Z,24.24
2022-08-19T04:47:01.528Z,24.24
2022-08-19T04:48:27.337Z,24.24
2022-08-19T04:49:10.383Z,24.24
2022-08-19T04:50:02.416Z,24.24
2022-08-19T04:51:01.388Z,24.24
2022-08-19T04:52:01.393Z,24.24
2022-08-19T04:53:01.362Z,24.24
2022-08-19T04:54:01.353Z,24.24
2022-08-19T04:55:01.353Z,24.25
2022-08-19T04:56:01.333Z,24.22
2022-08-19T04:57:01.322Z,24.24
2022-08-19T04:58:01.305Z,24.22
2022-08-19T04:59:01.303Z,24.24
2022-08-19T05:00:01.321Z,24.24
2022-08-19T05:01:01.342Z,24.22
2022-08-19T05:02:01.271Z,24.24
2022-08-19T05:03:01.247Z,24.24
2022-08-19T05:04:01.247Z,24.24
2022-08-19T05:05:01.247Z,24.25
2022-08-19T05:06:01.228Z,24.24
2022-08-19T05:07:01.471Z,24.24
2022-08-19T05:08:01.207Z,24.24
2022-08-19T05:09:01.186Z,24.22
2022-08-19T05:10:01.197Z,24.22
2022-08-19T05:11:01.168Z,24.22
2022-08-19T05:12:01.180Z,24.22
2022-08-19T05:13:01.160Z,24.20
2022-08-19T05:14:01.131Z,24.22
2022-08-19T05:15:01.131Z,24.21
2022-08-19T05:16:01.111Z,24.22
2022-08-19T05:17:25.598Z,24.24
2022-08-19T05:18:02.096Z,24.22
2022-08-19T05:19:01.082Z,24.25
2022-08-19T05:20:01.094Z,24.28
2022-08-19T05:21:01.053Z,24.30
2022-08-19T05:22:01.053Z,24.30
2022-08-19T05:23:01.034Z,24.32
2022-08-19T05:24:02.024Z,24.35
2022-08-19T05:25:12.781Z,24.37
2022-08-19T05:26:01.994Z,24.39
2022-08-19T05:27:00.986Z,24.40
2022-08-19T05:28:00.973Z,24.43
2022-08-19T05:29:00.974Z,24.45
2022-08-19T05:30:00.979Z,24.46
2022-08-19T05:31:00.937Z,24.49
2022-08-19T05:32:01.071Z,24.49
2022-08-19T05:33:00.928Z,24.50
2022-08-19T05:34:00.909Z,24.52
2022-08-19T05:35:00.918Z,24.53
2022-08-19T05:36:00.891Z,24.55
2022-08-19T05:37:00.880Z,24.55
2022-08-19T05:38:00.871Z,24.58
2022-08-19T05:39:00.850Z,24.58
2022-08-19T05:40:00.957Z,24.60
2022-08-19T05:41:00.838Z,24.60
2022-08-19T05:42:00.831Z,24.61
2022-08-19T05:43:00.805Z,24.61
2022-08-19T05:44:00.802Z,24.64
2022-08-19T05:45:00.812Z,24.64
2022-08-19T05:46:00.780Z,24.64
2022-08-19T05:47:00.767Z,24.67
2022-08-19T05:48:00.764Z,24.67
2022-08-19T05:49:00.733Z,24.67
2022-08-19T05:50:00.756Z,24.68
2022-08-19T05:51:00.715Z,24.68
2022-08-19T05:52:00.717Z,24.68
2022-08-19T05:53:00.696Z,24.69
2022-08-19T05:54:00.706Z,24.71
2022-08-19T05:55:00.701Z,24.69
2022-08-19T05:56:00.750Z,24.71
2022-08-19T05:57:00.656Z,24.71
2022-08-19T05:58:00.654Z,24.71
2022-08-19T05:59:00.636Z,24.73
2022-08-19T06:00:00.646Z,24.73
2022-08-19T06:01:00.605Z,24.77
2022-08-19T06:02:00.607Z,24.76
2022-08-19T06:03:00.629Z,24.76
2022-08-19T06:04:01.579Z,24.77
2022-08-19T06:05:00.579Z,24.76
2022-08-19T06:06:00.540Z,24.77
2022-08-19T06:07:00.537Z,24.77
2022-08-19T06:08:01.532Z,24.77
2022-08-19T06:09:00.515Z,24.77
2022-08-19T06:10:01.423Z,24.77
2022-08-19T06:11:00.501Z,24.77
2022-08-19T06:12:00.485Z,24.78
2022-08-19T06:13:00.471Z,24.78
2022-08-19T06:14:00.608Z,24.78
2022-08-19T06:15:01.010Z,24.78
2022-08-19T06:16:00.464Z,24.78
2022-08-19T06:17:03.658Z,24.78
2022-08-19T06:18:01.418Z,24.78
2022-08-19T06:19:00.403Z,24.81
2022-08-19T06:20:00.623Z,24.81
2022-08-19T06:21:00.383Z,24.80
2022-08-19T06:22:00.377Z,24.81
2022-08-19T06:23:00.366Z,24.81
2022-08-19T06:24:00.369Z,24.83
2022-08-19T06:25:00.383Z,24.83
2022-08-19T06:26:00.348Z,24.84
2022-08-19T06:27:01.666Z,24.83
2022-08-19T06:28:15.962Z,24.84
2022-08-19T06:29:01.293Z,24.85
2022-08-19T06:30:00.310Z,24.84
2022-08-19T06:31:00.279Z,24.84
2022-08-19T06:32:00.260Z,24.85
2022-08-19T06:33:00.251Z,24.85
2022-08-19T06:34:00.254Z,24.85
2022-08-19T06:35:00.264Z,24.85
2022-08-19T06:36:00.222Z,24.87
2022-08-19T06:37:00.222Z,24.87
2022-08-19T06:38:00.216Z,24.87
2022-08-19T06:39:00.198Z,24.87
2022-08-19T06:40:00.310Z,24.87
2022-08-19T06:41:00.155Z,24.87
2022-08-19T06:42:00.156Z,24.87
2022-08-19T06:43:00.589Z,24.87
2022-08-19T06:44:00.135Z,24.88
2022-08-19T06:45:00.134Z,24.88
2022-08-19T06:46:00.114Z,24.88
2022-08-19T06:47:00.121Z,24.88
2022-08-19T06:48:00.102Z,24.90
2022-08-19T06:49:00.068Z,24.88
2022-08-19T06:50:02.741Z,24.88
2022-08-19T06:51:00.068Z,24.90
2022-08-19T06:52:00.062Z,24.91
2022-08-19T06:53:03.593Z,24.90
2022-08-19T06:54:00.036Z,24.91
2022-08-19T06:55:00.022Z,24.91
2022-08-19T06:56:00.002Z,24.91
2022-08-19T06:56:59.979Z,24.91
2022-08-19T06:57:59.999Z,24.91
2022-08-19T06:58:59.952Z,24.93
2022-08-19T06:59:59.971Z,24.91
2022-08-19T07:00:59.980Z,24.93
2022-08-19T07:01:59.931Z,24.93
2022-08-19T07:03:01.958Z,24.93
2022-08-19T07:03:59.933Z,24.93
2022-08-19T07:05:00.250Z,24.93
2022-08-19T07:05:59.903Z,24.95
2022-08-19T07:06:59.882Z,24.95
2022-08-19T07:08:04.752Z,24.95
2022-08-19T07:08:59.844Z,24.95
2022-08-19T07:10:02.007Z,24.95
2022-08-19T07:10:59.827Z,24.95
2022-08-19T07:11:59.823Z,24.95
2022-08-19T07:12:59.795Z,24.96
2022-08-19T07:13:59.795Z,24.95
2022-08-19T07:14:59.804Z,24.95
2022-08-19T07:15:59.769Z,24.95
2022-08-19T07:17:00.766Z,24.95
2022-08-19T07:17:59.772Z,24.95
2022-08-19T07:18:59.750Z,24.95
2022-08-19T07:20:04.990Z,24.95
2022-08-19T07:21:00.708Z,24.95
2022-08-19T07:21:59.717Z,24.95
2022-08-19T07:22:59.699Z,24.95
2022-08-19T07:24:01.871Z,24.95
2022-08-19T07:24:59.722Z,24.95
2022-08-19T07:25:59.712Z,24.95
2022-08-19T07:26:59.650Z,24.95
2022-08-19T07:28:01.355Z,24.96
2022-08-19T07:28:59.650Z,24.96
2022-08-19T07:29:59.767Z,24.95
2022-08-19T07:30:59.602Z,24.95
2022-08-19T07:32:00.214Z,24.96
2022-08-19T07:32:59.573Z,24.96
2022-08-19T07:33:59.567Z,24.96
2022-08-19T07:34:59.596Z,24.96
2022-08-19T07:35:59.554Z,24.96
2022-08-19T07:36:59.531Z,24.96
2022-08-19T07:37:59.525Z,24.98
2022-08-19T07:38:59.515Z,24.98
2022-08-19T07:39:59.611Z,24.98
2022-08-19T07:40:59.486Z,24.99
2022-08-19T07:41:59.477Z,24.98
2022-08-19T07:42:59.474Z,24.98
2022-08-19T07:43:59.486Z,24.99
2022-08-19T07:44:59.693Z,24.98
2022-08-19T07:45:59.500Z,24.98
2022-08-19T07:46:59.418Z,24.99
2022-08-19T07:47:59.853Z,24.99
2022-08-19T07:48:59.419Z,24.99
2022-08-19T07:49:59.399Z,24.98
2022-08-19T07:50:59.381Z,24.99
2022-08-19T07:51:59.733Z,24.99
2022-08-19T07:52:59.779Z,24.99
2022-08-19T07:53:59.371Z,25.00
2022-08-19T07:54:59.343Z,25.00
2022-08-19T07:56:00.111Z,25.02
2022-08-19T07:56:59.326Z,25.02
2022-08-19T07:57:59.323Z,25.02
2022-08-19T07:58:59.357Z,25.02
2022-08-19T07:59:59.294Z,25.02
2022-08-19T08:00:59.274Z,25.03
2022-08-19T08:01:59.327Z,25.02
2022-08-19T08:02:59.276Z,25.03
2022-08-19T08:03:59.276Z,25.03
2022-08-19T08:04:59.234Z,25.05
2022-08-19T08:05:59.224Z,25.03
2022-08-19T08:06:59.205Z,25.05
2022-08-19T08:07:59.224Z,25.06
2022-08-19T08:08:59.207Z,25.06
2022-08-19T08:09:59.187Z,25.05
2022-08-19T08:10:59.171Z,25.05
2022-08-19T08:12:02.098Z,25.06
2022-08-19T08:13:09.730Z,25.06
2022-08-19T08:14:04.524Z,25.05
2022-08-19T08:14:59.229Z,25.06
2022-08-19T08:15:59.289Z,25.06
2022-08-19T08:16:59.208Z,25.06
2022-08-19T08:17:59.111Z,25.05
2022-08-19T08:18:59.111Z,25.03
2022-08-19T08:19:59.861Z,25.05
2022-08-19T08:20:59.067Z,25.05
2022-08-19T08:21:59.837Z,25.03
2022-08-19T08:22:59.043Z,25.03
2022-08-19T08:24:59.020Z,25.06
2022-08-19T08:25:59.013Z,25.05
2022-08-19T08:26:58.995Z,25.06
2022-08-19T08:27:58.995Z,25.06
2022-08-19T08:28:58.995Z,25.06
2022-08-19T08:29:58.965Z,25.06
2022-08-19T08:30:58.955Z,25.06
2022-08-19T08:32:00.159Z,25.06
2022-08-19T08:32:58.935Z,25.06
2022-08-19T08:33:58.956Z,25.08
2022-08-19T08:34:58.914Z,25.06
2022-08-19T08:35:58.915Z,25.08
2022-08-19T08:36:58.889Z,25.08
2022-08-19T08:37:58.888Z,25.09
2022-08-19T08:38:58.965Z,25.09
2022-08-19T08:39:58.937Z,25.09
2022-08-19T08:40:59.630Z,25.09
2022-08-19T08:41:58.841Z,25.09
2022-08-19T08:42:58.819Z,25.09
2022-08-19T08:43:58.839Z,25.08
2022-08-19T08:45:59.581Z,25.06
2022-08-19T08:46:58.779Z,25.05
2022-08-19T08:47:59.310Z,25.06
2022-08-19T08:48:59.528Z,25.05
2022-08-19T08:49:58.760Z,25.05
2022-08-19T08:50:58.740Z,25.03
2022-08-19T08:51:59.977Z,25.03
2022-08-19T08:52:58.724Z,25.03
2022-08-19T08:53:58.735Z,25.03
2022-08-19T08:54:58.714Z,25.02
2022-08-19T08:55:58.684Z,25.02
2022-08-19T08:56:58.684Z,25.00
2022-08-19T08:57:58.685Z,25.00
2022-08-19T08:58:59.186Z,25.00
2022-08-19T08:59:58.646Z,25.02
2022-08-19T09:00:58.644Z,24.99
2022-08-19T09:01:59.463Z,24.99
2022-08-19T09:02:58.620Z,24.99
2022-08-19T09:04:02.730Z,25.00
2022-08-19T09:04:59.376Z,25.00
2022-08-19T09:05:58.587Z,24.99
2022-08-19T09:06:58.576Z,25.02
2022-08-19T09:08:00.049Z,25.00
2022-08-19T09:08:58.579Z,25.00
2022-08-19T09:09:58.548Z,24.99
2022-08-19T09:10:58.623Z,24.98
2022-08-19T09:11:58.517Z,24.99
2022-08-19T09:12:58.530Z,24.99
2022-08-19T09:13:58.511Z,24.99
2022-08-19T09:14:58.489Z,24.98
2022-08-19T09:15:59.260Z,24.99
2022-08-19T09:16:58.476Z,24.98
2022-08-19T09:17:58.462Z,24.98
2022-08-19T09:18:58.470Z,24.99
2022-08-19T09:19:58.433Z,24.98
2022-08-19T09:20:58.434Z,24.99
2022-08-19T09:21:58.436Z,24.98
2022-08-19T09:22:58.405Z,24.98
2022-08-19T09:23:58.406Z,24.98
2022-08-19T09:24:58.387Z,24.98
2022-08-19T09:25:58.602Z,24.96
2022-08-19T09:26:58.366Z,24.98
2022-08-19T09:28:02.551Z,24.98
2022-08-19T09:28:58.357Z,24.96
2022-08-19T09:29:58.336Z,24.96
2022-08-19T09:30:58.346Z,24.98
2022-08-19T09:31:58.311Z,24.96
2022-08-19T09:32:58.303Z,24.99
2022-08-19T09:33:58.311Z,24.98
2022-08-19T09:34:58.277Z,24.96
2022-08-19T09:35:58.258Z,24.96
2022-08-19T09:36:58.249Z,24.96
2022-08-19T09:37:59.550Z,24.96
2022-08-19T09:38:58.261Z,24.95
2022-08-19T09:39:58.254Z,24.96
2022-08-19T09:40:58.210Z,24.96
2022-08-19T09:41:58.220Z,24.95
2022-08-19T09:42:58.194Z,24.96
2022-08-19T09:43:58.201Z,24.96
2022-08-19T09:44:58.170Z,24.96
2022-08-19T09:45:58.153Z,24.95
2022-08-19T09:46:58.143Z,24.96
2022-08-19T09:47:58.154Z,24.96
2022-08-19T09:48:58.124Z,24.96
2022-08-19T09:49:59.126Z,24.96
2022-08-19T09:50:58.105Z,24.93
2022-08-19T09:51:58.075Z,24.95
2022-08-19T09:52:58.104Z,24.95
2022-08-19T09:53:58.075Z,24.91
2022-08-19T09:54:58.058Z,24.95
2022-08-19T09:55:58.033Z,24.93
2022-08-19T09:56:58.036Z,24.93
2022-08-19T09:57:58.047Z,24.93
2022-08-19T09:58:58.016Z,24.90
2022-08-19T09:59:58.007Z,24.88
2022-08-19T10:00:58.040Z,24.90
2022-08-19T10:02:03.988Z,24.90
2022-08-19T10:02:58.999Z,24.88
2022-08-19T10:03:58.740Z,24.90
2022-08-19T10:04:57.948Z,24.88
2022-08-19T10:05:57.951Z,24.87
2022-08-19T10:06:57.976Z,24.87
2022-08-19T10:07:57.931Z,24.88
2022-08-19T10:08:57.907Z,24.87
2022-08-19T10:09:57.881Z,24.88
2022-08-19T10:10:59.196Z,24.87
2022-08-19T10:11:57.864Z,24.88
2022-08-19T10:12:57.873Z,24.87
2022-08-19T10:13:59.305Z,24.85
2022-08-19T10:14:57.853Z,24.85
2022-08-19T10:15:57.834Z,24.85
2022-08-19T10:16:59.144Z,24.83
2022-08-19T10:17:59.663Z,24.83
2022-08-19T10:18:59.123Z,24.81
2022-08-19T10:19:57.794Z,24.81
2022-08-19T10:20:57.765Z,24.81
2022-08-19T10:22:00.516Z,24.80
2022-08-19T10:22:57.747Z,24.80
2022-08-19T10:23:57.757Z,24.81
2022-08-19T10:24:57.736Z,24.80
2022-08-19T10:25:58.497Z,24.78
2022-08-19T10:26:59.567Z,24.78
2022-08-19T10:27:57.700Z,24.77
2022-08-19T10:28:57.792Z,24.76
2022-08-19T10:29:59.119Z,24.73
2022-08-19T10:30:57.669Z,24.73
2022-08-19T10:31:59.872Z,24.73
2022-08-19T10:32:57.642Z,24.71
2022-08-19T10:33:57.645Z,24.71
2022-08-19T10:34:57.624Z,24.67
2022-08-19T10:35:57.623Z,24.64
2022-08-19T10:37:00.975Z,24.60
2022-08-19T10:38:01.967Z,24.58
2022-08-19T10:38:58.402Z,24.57
2022-08-19T10:39:57.683Z,24.53
2022-08-19T10:40:57.562Z,24.52
2022-08-19T10:41:57.564Z,24.50
2022-08-19T10:42:57.531Z,24.49
2022-08-19T10:43:57.536Z,24.47
2022-08-19T10:44:58.505Z,24.46
2022-08-19T10:45:58.276Z,24.46
2022-08-19T10:46:57.484Z,24.45
2022-08-19T10:47:57.475Z,24.43
2022-08-19T10:48:57.489Z,24.43
2022-08-19T10:49:57.445Z,24.42
2022-08-19T10:50:57.443Z,24.42
2022-08-19T10:51:57.449Z,24.43
2022-08-19T10:52:57.418Z,24.42
2022-08-19T10:53:58.175Z,24.42
2022-08-19T10:54:57.408Z,24.42
2022-08-19T10:55:57.409Z,24.39
2022-08-19T10:56:57.546Z,24.37
2022-08-19T10:58:02.510Z,24.37
2022-08-19T10:58:58.386Z,24.35
2022-08-19T10:59:57.349Z,24.34
2022-08-19T11:00:57.418Z,24.34
2022-08-19T11:01:57.639Z,24.31
2022-08-19T11:02:57.312Z,24.32
2022-08-19T11:03:57.334Z,24.30
2022-08-19T11:04:59.854Z,24.30
2022-08-19T11:05:58.283Z,24.28
2022-08-19T11:06:58.734Z,24.27
2022-08-19T11:07:57.264Z,24.27
2022-08-19T11:08:57.275Z,24.25
2022-08-19T11:09:57.224Z,24.25
2022-08-19T11:10:57.243Z,24.27
2022-08-19T11:11:57.216Z,24.25
2022-08-19T11:12:58.216Z,24.24
2022-08-19T11:13:57.205Z,24.22
2022-08-19T11:14:57.185Z,24.22
2022-08-19T11:15:57.168Z,24.21
2022-08-19T11:16:57.157Z,24.21
2022-08-19T11:17:57.156Z,24.21
2022-08-19T11:18:57.169Z,24.21
2022-08-19T11:19:57.128Z,24.20
2022-08-19T11:20:57.130Z,24.20
2022-08-19T11:22:00.069Z,24.20
2022-08-19T11:22:57.100Z,24.21
2022-08-19T11:23:57.109Z,24.21
2022-08-19T11:24:57.077Z,24.21
2022-08-19T11:25:57.060Z,24.21
2022-08-19T11:26:57.060Z,24.21
2022-08-19T11:27:57.040Z,24.21
2022-08-19T11:28:57.043Z,24.21
2022-08-19T11:29:57.805Z,24.21
2022-08-19T11:30:57.017Z,24.21
2022-08-19T11:31:57.001Z,24.21
2022-08-19T11:32:56.986Z,24.21
2022-08-19T11:33:56.991Z,24.21
2022-08-19T11:34:56.974Z,24.20
2022-08-19T11:35:56.953Z,24.20
2022-08-19T11:36:56.947Z,24.18
2022-08-19T11:37:56.946Z,24.18
2022-08-19T11:38:56.946Z,24.18
2022-08-19T11:39:56.957Z,24.18
2022-08-19T11:40:56.896Z,24.16
2022-08-19T11:41:56.881Z,24.18
2022-08-19T11:42:56.894Z,24.18
2022-08-19T11:43:57.315Z,24.18
2022-08-19T11:44:56.858Z,24.16
2022-08-19T11:45:56.856Z,24.16
2022-08-19T11:46:56.838Z,24.16
2022-08-19T11:47:56.842Z,24.16
2022-08-19T11:48:56.861Z,24.18
2022-08-19T11:49:56.800Z,24.18
2022-08-19T11:50:56.801Z,24.18
2022-08-19T11:51:56.785Z,24.18
2022-08-19T11:52:56.770Z,24.16
2022-08-19T11:53:57.294Z,24.18
2022-08-19T11:54:56.756Z,24.20
2022-08-19T11:55:56.734Z,24.18
2022-08-19T11:56:57.204Z,24.20
2022-08-19T11:57:56.723Z,24.20
2022-08-19T11:58:56.943Z,24.20
2022-08-19T11:59:56.690Z,24.21
2022-08-19T12:00:56.684Z,24.20
2022-08-19T12:01:56.825Z,24.20
2022-08-19T12:02:56.654Z,24.21
2022-08-19T12:03:56.720Z,24.22
2022-08-19T12:04:56.635Z,24.24
2022-08-19T12:05:56.634Z,24.25
2022-08-19T12:06:56.616Z,24.27
2022-08-19T12:07:56.605Z,24.28
2022-08-19T12:08:56.607Z,24.30
2022-08-19T12:09:56.596Z,24.30
2022-08-19T12:10:56.569Z,24.30
2022-08-19T12:11:56.557Z,24.32
2022-08-19T12:12:58.790Z,24.31
2022-08-19T12:13:56.557Z,24.32
2022-08-19T12:14:56.520Z,24.34
2022-08-19T12:15:56.510Z,24.34
2022-08-19T12:16:56.499Z,24.35
2022-08-19T12:17:56.490Z,24.39
2022-08-19T12:18:56.515Z,24.39
2022-08-19T12:19:56.473Z,24.40
2022-08-19T12:20:56.462Z,24.42
2022-08-19T12:21:56.450Z,24.43
2022-08-19T12:22:57.210Z,24.45
2022-08-19T12:23:56.443Z,24.46
2022-08-19T12:24:56.413Z,24.46
2022-08-19T12:25:56.402Z,24.45
2022-08-19T12:26:56.390Z,24.46
2022-08-19T12:27:57.441Z,24.47
2022-08-19T12:28:56.385Z,24.46
2022-08-19T12:29:56.345Z,24.49
2022-08-19T12:30:57.130Z,24.49
2022-08-19T12:31:56.345Z,24.52
2022-08-19T12:32:56.417Z,24.53
2022-08-19T12:33:56.344Z,24.53
2022-08-19T12:34:56.306Z,24.55
2022-08-19T12:35:56.287Z,24.57
2022-08-19T12:36:56.279Z,24.60
2022-08-19T12:37:57.401Z,24.61
2022-08-19T12:38:57.018Z,24.62
2022-08-19T12:39:56.385Z,24.62
2022-08-19T12:41:00.145Z,24.65
2022-08-19T12:41:56.220Z,24.67
2022-08-19T12:42:56.909Z,24.67
2022-08-19T12:43:56.211Z,24.68
2022-08-19T12:44:56.464Z,24.69
2022-08-19T12:45:56.171Z,24.71
2022-08-19T12:46:56.161Z,24.73
2022-08-19T12:47:56.330Z,24.76
2022-08-19T12:48:56.305Z,24.77
2022-08-19T12:49:56.352Z,24.77
2022-08-19T12:50:56.123Z,24.78
2022-08-19T12:51:56.102Z,24.80
2022-08-19T12:52:56.095Z,24.78
2022-08-19T12:53:56.845Z,24.81
2022-08-19T12:54:56.084Z,24.81
2022-08-19T12:55:56.062Z,24.83